This is the latest recevied weather packets stored in our database for station/object ac2ev. If no packets are shown the sender has not sent any weather packets the latest 10 day(s).
| Time | Temp. | Humidity | Pressure | Rain* | Wind** | Luminosity | Snow |
|---|---|---|---|---|---|---|---|
| 1777841490 | 13.89° C | 43% | 1008.2 hPa | 0 mm | - | - | - |
| 1777841191 | 13.89° C | 43% | 1008.1 hPa | 0 mm | - | - | - |
| 1777840891 | 13.89° C | 42% | 1008.1 hPa | 0 mm | - | - | - |
| 1777840592 | 13.89° C | 42% | 1008.2 hPa | 0 mm | - | - | - |
| 1777840290 | 13.89° C | 42% | 1008.2 hPa | 0 mm | - | - | - |
| 1777839991 | 13.89° C | 41% | 1008.3 hPa | 0 mm | - | - | - |
| 1777839691 | 13.89° C | 41% | 1008.4 hPa | 0 mm | - | - | - |
| 1777839391 | 13.89° C | 39% | 1008.4 hPa | 0 mm | - | - | - |
| 1777839091 | 13.89° C | 39% | 1008.5 hPa | 0 mm | - | - | - |
| 1777838790 | 14.44° C | 40% | 1008.6 hPa | 0 mm | - | - | - |
| 1777838491 | 13.89° C | 38% | 1008.7 hPa | 0 mm | - | - | - |
| 1777838191 | 14.44° C | 38% | 1008.8 hPa | 0 mm | - | - | - |
| 1777837890 | 14.44° C | 38% | 1008.8 hPa | 0 mm | - | - | - |
| 1777837592 | 14.44° C | 39% | 1008.9 hPa | 0 mm | - | - | - |
| 1777834291 | 13.33° C | 38% | 1010 hPa | 0 mm | - | - | - |
| 1777833990 | 13.33° C | 38% | 1010.1 hPa | 0 mm | - | - | - |
| 1777833695 | 13.33° C | 39% | 1010.1 hPa | 0 mm | - | - | - |
| 1777833390 | 13.89° C | 39% | 1010.1 hPa | 0 mm | - | - | - |
| 1777833091 | 13.33° C | 40% | 1010.2 hPa | 0 mm | - | - | - |
| 1777832791 | 13.33° C | 40% | 1010.3 hPa | 0 mm | - | - | - |
| 1777832491 | 13.33° C | 41% | 1010.3 hPa | 0 mm | - | - | - |
| 1777832191 | 12.78° C | 41% | 1010.3 hPa | 0 mm | - | - | - |
| 1777831890 | 12.78° C | 45% | 1010.4 hPa | 0 mm | - | - | - |
| 1777831591 | 12.22° C | 48% | 1010.6 hPa | 0 mm | - | - | - |
| 1777831291 | 12.22° C | 51% | 1010.5 hPa | 0 mm | - | - | - |
* Rain latest hour (hover to see other rain measurements)
** Current wind speed in m/s (hover to see current wind gust speed)